createdAt,value
2022-09-18T00:01:33.238Z,85.40
2022-09-18T00:04:03.012Z,85.52
2022-09-18T00:06:32.354Z,85.50
2022-09-18T00:09:01.037Z,85.05
2022-09-18T00:11:30.819Z,84.80
2022-09-18T00:13:58.769Z,84.75
2022-09-18T00:16:26.648Z,84.84
2022-09-18T00:18:54.528Z,83.83
2022-09-18T00:21:25.238Z,83.92
2022-09-18T00:23:55.514Z,83.92
2022-09-18T00:26:23.581Z,83.78
2022-09-18T00:28:51.243Z,83.19
2022-09-18T00:31:21.093Z,83.71
2022-09-18T00:33:48.921Z,83.29
2022-09-18T00:36:17.620Z,83.14
2022-09-18T00:38:45.427Z,83.04
2022-09-18T00:41:25.377Z,83.59
2022-09-18T00:43:53.954Z,83.64
2022-09-18T00:46:35.179Z,83.79
2022-09-18T00:49:17.599Z,84.22
2022-09-18T00:51:46.393Z,84.33
2022-09-18T00:54:19.514Z,84.64
2022-09-18T00:56:47.669Z,84.89
2022-09-18T00:59:16.298Z,85.22
2022-09-18T01:01:44.094Z,84.98
2022-09-18T01:04:15.110Z,85.20
2022-09-18T01:07:12.196Z,85.25
2022-09-18T01:09:49.439Z,85.08
2022-09-18T01:12:20.119Z,85.19
2022-09-18T01:15:11.072Z,85.51
2022-09-18T01:17:51.143Z,85.33
2022-09-18T01:20:26.842Z,86.44
2022-09-18T01:23:32.059Z,86.12
2022-09-18T01:26:26.978Z,87.13
2022-09-18T01:29:28.771Z,85.79
2022-09-18T01:32:31.017Z,85.65
2022-09-18T01:35:14.063Z,86.10
2022-09-18T01:38:01.658Z,85.72
2022-09-18T01:40:32.879Z,85.89
2022-09-18T01:43:01.776Z,86.20
2022-09-18T01:45:32.086Z,86.08
2022-09-18T01:48:02.625Z,85.03
2022-09-18T01:50:32.858Z,85.59
2022-09-18T01:53:19.691Z,85.72
2022-09-18T01:55:54.032Z,86.57
2022-09-18T01:58:23.139Z,85.61
2022-09-18T02:00:55.553Z,85.90
2022-09-18T02:03:28.824Z,85.59
2022-09-18T02:06:00.123Z,84.14
2022-09-18T02:08:38.602Z,85.15
2022-09-18T02:11:11.128Z,84.44
2022-09-18T02:13:47.478Z,84.04
2022-09-18T02:16:39.357Z,84.74
2022-09-18T02:19:10.749Z,84.34
2022-09-18T02:21:38.519Z,83.32
2022-09-18T02:24:08.110Z,82.91
2022-09-18T02:26:36.452Z,83.56
2022-09-18T02:29:04.394Z,83.84
2022-09-18T02:31:32.330Z,84.39
2022-09-18T02:34:00.092Z,84.07
2022-09-18T02:36:30.478Z,82.85
2022-09-18T02:39:23.077Z,82.85
2022-09-18T02:42:13.420Z,81.74
2022-09-18T02:45:08.996Z,82.07
2022-09-18T02:47:52.782Z,82.13
2022-09-18T02:50:31.343Z,81.60
2022-09-18T02:53:07.495Z,81.22
2022-09-18T02:55:44.283Z,81.49
2022-09-18T02:58:29.838Z,81.46
2022-09-18T03:01:00.030Z,81.58
2022-09-18T03:03:29.318Z,81.75
2022-09-18T03:05:58.528Z,82.68
2022-09-18T03:08:26.659Z,82.71
2022-09-18T03:10:56.313Z,82.30
2022-09-18T03:13:23.995Z,82.58
2022-09-18T03:15:51.824Z,81.58
2022-09-18T03:18:19.581Z,82.51
2022-09-18T03:20:47.272Z,82.57
2022-09-18T03:23:14.959Z,81.42
2022-09-18T03:25:42.670Z,81.68
2022-09-18T03:28:10.372Z,82.03
2022-09-18T03:30:38.192Z,82.44
2022-09-18T03:33:05.957Z,83.31
2022-09-18T03:35:33.674Z,82.37
2022-09-18T03:38:01.356Z,82.80
2022-09-18T03:40:29.136Z,82.35
2022-09-18T03:42:56.893Z,82.36
2022-09-18T03:45:24.698Z,80.79
2022-09-18T03:47:52.430Z,80.76
2022-09-18T03:50:20.119Z,80.20
2022-09-18T03:52:51.445Z,81.26
2022-09-18T03:55:19.560Z,82.14
2022-09-18T03:57:48.026Z,81.05
2022-09-18T04:00:16.035Z,81.84
2022-09-18T04:02:44.174Z,82.01
2022-09-18T04:05:11.929Z,82.30
2022-09-18T04:07:39.840Z,82.75
2022-09-18T04:10:08.030Z,82.35
2022-09-18T04:12:35.894Z,82.24
2022-09-18T04:15:03.580Z,82.69
2022-09-18T04:17:31.313Z,82.21
2022-09-18T04:19:59.056Z,81.11
2022-09-18T04:22:26.759Z,80.78
2022-09-18T04:24:54.489Z,81.33
2022-09-18T04:27:22.216Z,81.96
2022-09-18T04:29:49.901Z,81.63
2022-09-18T04:32:17.603Z,81.74
2022-09-18T04:34:45.329Z,81.92
2022-09-18T04:37:13.027Z,80.03
2022-09-18T04:39:40.674Z,80.54
2022-09-18T04:42:08.420Z,80.62
2022-09-18T04:44:36.148Z,81.14
2022-09-18T04:47:03.909Z,80.62
2022-09-18T04:49:31.697Z,80.26
2022-09-18T04:51:59.428Z,79.08
2022-09-18T04:54:27.135Z,79.98
2022-09-18T04:56:54.840Z,80.62
2022-09-18T04:59:22.639Z,80.69
2022-09-18T05:01:50.411Z,81.30
2022-09-18T05:04:18.151Z,81.23
2022-09-18T05:06:45.896Z,81.05
2022-09-18T05:09:13.559Z,81.71
2022-09-18T05:11:41.250Z,81.64
2022-09-18T05:14:09.152Z,81.96
2022-09-18T05:16:36.939Z,82.17
2022-09-18T05:19:04.700Z,81.68
2022-09-18T05:21:32.423Z,81.32
2022-09-18T05:24:00.191Z,81.78
2022-09-18T05:26:27.997Z,81.46
2022-09-18T05:28:55.686Z,80.80
2022-09-18T05:31:23.432Z,80.78
2022-09-18T05:33:51.263Z,80.86
2022-09-18T05:36:18.979Z,80.67
2022-09-18T05:38:46.738Z,80.34
2022-09-18T05:41:14.498Z,81.22
2022-09-18T05:43:45.367Z,80.19
2022-09-18T05:46:13.259Z,80.19
2022-09-18T05:48:40.988Z,80.83
2022-09-18T05:51:08.723Z,80.89
2022-09-18T05:53:37.024Z,80.23
2022-09-18T05:56:04.795Z,80.14
2022-09-18T05:58:32.593Z,79.53
2022-09-18T06:01:02.403Z,79.93
2022-09-18T06:03:30.170Z,79.97
2022-09-18T06:05:57.837Z,80.17
2022-09-18T06:08:25.777Z,79.84
2022-09-18T06:10:54.841Z,79.72
2022-09-18T06:13:22.504Z,80.10
2022-09-18T06:15:51.458Z,79.95
2022-09-18T06:18:19.479Z,80.68
2022-09-18T06:20:56.518Z,80.38
2022-09-18T06:23:24.998Z,81.06
2022-09-18T06:26:09.357Z,80.95
2022-09-18T06:28:39.219Z,80.95
2022-09-18T06:31:07.078Z,81.01
2022-09-18T06:33:37.265Z,81.18
2022-09-18T06:36:09.372Z,79.19
2022-09-18T06:38:37.130Z,79.87
2022-09-18T06:41:04.813Z,78.79
2022-09-18T06:43:32.536Z,77.74
2022-09-18T06:46:00.300Z,77.97
2022-09-18T06:48:28.153Z,78.35
2022-09-18T06:50:56.516Z,77.56
2022-09-18T06:53:24.847Z,77.87
2022-09-18T06:55:52.629Z,77.41
2022-09-18T06:58:20.737Z,77.90
2022-09-18T07:00:48.594Z,78.36
2022-09-18T07:03:16.475Z,78.20
2022-09-18T07:05:46.458Z,78.06
2022-09-18T07:08:14.504Z,78.25
2022-09-18T07:10:42.315Z,78.71
2022-09-18T07:13:10.120Z,79.17
2022-09-18T07:15:37.888Z,78.69
2022-09-18T07:18:06.246Z,78.87
2022-09-18T07:20:34.243Z,78.52
2022-09-18T07:23:02.754Z,78.47
2022-09-18T07:25:32.031Z,78.65
2022-09-18T07:28:04.520Z,78.46
2022-09-18T07:30:32.271Z,77.27
2022-09-18T07:32:59.947Z,77.37
2022-09-18T07:35:27.771Z,77.50
2022-09-18T07:38:00.279Z,77.53
2022-09-18T07:40:28.751Z,77.11
2022-09-18T07:43:01.344Z,75.41
2022-09-18T07:45:29.114Z,75.46
2022-09-18T07:47:57.023Z,75.79
2022-09-18T07:50:25.143Z,75.21
2022-09-18T07:53:00.013Z,74.89
2022-09-18T07:55:28.124Z,77.18
2022-09-18T07:58:00.096Z,77.37
2022-09-18T08:00:29.085Z,75.92
2022-09-18T08:03:07.962Z,74.16
2022-09-18T08:05:35.808Z,75.23
2022-09-18T08:08:14.293Z,76.04
2022-09-18T08:10:43.065Z,75.74
2022-09-18T08:13:10.824Z,74.57
2022-09-18T08:15:39.499Z,74.50
2022-09-18T08:18:08.037Z,75.67
2022-09-18T08:20:36.129Z,75.33
2022-09-18T08:23:04.952Z,76.20
2022-09-18T08:25:32.720Z,75.44
2022-09-18T08:28:02.807Z,74.31
2022-09-18T08:30:30.868Z,70.42
2022-09-18T08:33:00.176Z,69.22
2022-09-18T08:35:28.908Z,68.33
2022-09-18T08:37:56.813Z,68.44
2022-09-18T08:40:37.452Z,66.39
2022-09-18T08:43:23.499Z,65.88
2022-09-18T08:46:09.051Z,66.20
2022-09-18T08:48:40.621Z,62.02
2022-09-18T08:51:16.595Z,60.67
2022-09-18T08:53:46.226Z,59.82
2022-09-18T08:56:19.701Z,60.52
2022-09-18T08:58:59.689Z,60.05
2022-09-18T09:01:54.160Z,59.60
2022-09-18T09:04:26.547Z,61.43
2022-09-18T09:07:18.074Z,58.79
2022-09-18T09:10:15.336Z,59.12
2022-09-18T09:13:19.346Z,56.35
2022-09-18T09:15:58.534Z,56.25
2022-09-18T09:18:54.136Z,55.15
2022-09-18T09:21:25.904Z,55.41
2022-09-18T09:24:09.421Z,54.56
2022-09-18T09:26:37.149Z,55.24
2022-09-18T09:29:07.904Z,55.53
2022-09-18T09:31:38.329Z,51.18
2022-09-18T09:34:25.451Z,52.05
2022-09-18T09:36:54.539Z,51.61
2022-09-18T09:39:50.632Z,52.90
2022-09-18T09:42:33.559Z,52.31
2022-09-18T09:45:05.053Z,51.81
2022-09-18T09:48:05.201Z,50.31
2022-09-18T09:50:50.544Z,50.40
2022-09-18T09:53:18.307Z,50.15
2022-09-18T09:55:48.965Z,48.15
2022-09-18T09:58:26.510Z,48.45
2022-09-18T10:01:10.633Z,50.01
2022-09-18T10:03:57.008Z,48.57
2022-09-18T10:06:42.634Z,47.83
2022-09-18T10:09:30.997Z,48.35
2022-09-18T10:12:20.074Z,49.71
2022-09-18T10:14:47.853Z,50.05
2022-09-18T10:17:15.615Z,49.65
2022-09-18T10:19:44.028Z,49.73
2022-09-18T10:22:14.124Z,51.66
2022-09-18T10:24:48.344Z,52.70
2022-09-18T10:27:16.407Z,51.60
2022-09-18T10:29:44.303Z,50.24
2022-09-18T10:32:15.013Z,51.66
2022-09-18T10:34:47.075Z,48.67
2022-09-18T10:37:30.273Z,49.79
2022-09-18T10:40:00.877Z,51.36
2022-09-18T10:42:35.396Z,52.33
2022-09-18T10:45:10.820Z,51.71
2022-09-18T10:47:38.687Z,51.11
2022-09-18T10:50:12.572Z,51.17
2022-09-18T10:52:41.404Z,51.58
2022-09-18T10:55:09.967Z,49.50
2022-09-18T10:57:39.215Z,50.90
2022-09-18T11:00:12.868Z,48.85
2022-09-18T11:02:42.824Z,47.12
2022-09-18T11:05:22.778Z,48.36
2022-09-18T11:07:54.922Z,48.08
2022-09-18T11:10:24.030Z,46.07
2022-09-18T11:12:56.134Z,49.63
2022-09-18T11:18:19.674Z,48.11
2022-09-18T11:20:47.936Z,47.71
2022-09-18T11:23:30.153Z,47.85
2022-09-18T11:26:18.676Z,49.05
2022-09-18T11:29:19.444Z,47.50
2022-09-18T11:31:49.486Z,45.90
2022-09-18T11:34:24.191Z,46.70
2022-09-18T11:36:57.777Z,47.59
2022-09-18T11:39:34.845Z,48.76
2022-09-18T11:42:03.393Z,47.40
2022-09-18T11:44:39.184Z,47.24
2022-09-18T11:47:29.435Z,47.07
2022-09-18T11:50:06.553Z,47.94
2022-09-18T11:52:44.176Z,47.26
2022-09-18T11:55:36.562Z,46.35
2022-09-18T11:58:06.184Z,45.06
2022-09-18T12:00:46.662Z,46.48
2022-09-18T12:03:28.246Z,46.30
2022-09-18T12:05:59.258Z,45.57
2022-09-18T12:08:32.288Z,46.67
2022-09-18T12:11:45.979Z,46.26
2022-09-18T12:14:28.945Z,47.60
2022-09-18T12:17:11.380Z,43.24
2022-09-18T12:19:50.334Z,44.93
2022-09-18T12:22:30.865Z,44.95
2022-09-18T12:24:59.432Z,44.68
2022-09-18T12:28:02.988Z,45.13
2022-09-18T12:30:48.900Z,45.33
2022-09-18T12:33:33.973Z,44.93
2022-09-18T12:36:38.933Z,44.72
2022-09-18T12:39:34.591Z,44.35
2022-09-18T12:42:40.893Z,44.82
2022-09-18T12:45:56.975Z,46.42
2022-09-18T12:48:46.221Z,48.54
2022-09-18T12:51:32.812Z,48.95
2022-09-18T12:54:24.217Z,45.10
2022-09-18T12:57:33.179Z,45.02
2022-09-18T13:00:23.282Z,42.93
2022-09-18T13:02:57.106Z,44.71
2022-09-18T13:05:37.116Z,44.71
2022-09-18T13:08:29.195Z,44.12
2022-09-18T13:11:26.546Z,45.83
2022-09-18T13:14:12.727Z,46.68
2022-09-18T13:17:26.622Z,45.47
2022-09-18T13:20:04.362Z,46.96
2022-09-18T13:23:11.433Z,47.31
2022-09-18T13:25:48.479Z,47.67
2022-09-18T13:28:29.570Z,45.96
2022-09-18T13:31:25.704Z,48.50
2022-09-18T13:34:20.853Z,46.47
2022-09-18T13:37:16.558Z,46.31
2022-09-18T13:40:38.244Z,47.12
2022-09-18T13:43:39.334Z,51.48
2022-09-18T13:46:38.180Z,50.72
2022-09-18T13:49:56.093Z,52.52
2022-09-18T13:52:37.474Z,48.77
2022-09-18T13:55:37.957Z,47.84
2022-09-18T13:58:34.635Z,47.13
2022-09-18T14:01:31.431Z,47.55
2022-09-18T14:04:06.290Z,48.01
2022-09-18T14:07:10.023Z,48.36
2022-09-18T14:13:19.488Z,47.89
2022-09-18T14:16:13.439Z,49.06
2022-09-18T14:19:05.874Z,48.26
2022-09-18T14:22:10.610Z,48.60
2022-09-18T14:25:09.077Z,47.85
2022-09-18T14:28:02.980Z,48.70
2022-09-18T14:31:00.454Z,49.88
2022-09-18T14:33:31.145Z,49.83
2022-09-18T14:36:12.904Z,49.51
2022-09-18T14:38:45.946Z,51.02
2022-09-18T14:41:33.987Z,50.45
2022-09-18T14:44:08.296Z,51.21
2022-09-18T14:46:52.317Z,50.94
2022-09-18T14:49:42.499Z,51.14
2022-09-18T14:52:41.529Z,51.98
2022-09-18T14:55:58.191Z,51.12
2022-09-18T14:58:51.967Z,54.97
2022-09-18T15:01:36.463Z,53.28
2022-09-18T15:04:10.441Z,54.25
2022-09-18T15:06:57.002Z,53.20
2022-09-18T15:09:40.818Z,54.17
2022-09-18T15:12:27.834Z,54.48
2022-09-18T15:15:08.559Z,53.23
2022-09-18T15:18:08.202Z,53.28
2022-09-18T15:20:49.225Z,53.92
2022-09-18T15:23:47.873Z,54.78
2022-09-18T15:26:47.101Z,56.54
2022-09-18T15:29:44.966Z,57.59
2022-09-18T15:32:41.107Z,57.67
2022-09-18T15:35:42.539Z,55.66
2022-09-18T15:38:24.977Z,56.61
2022-09-18T15:41:02.276Z,54.78
2022-09-18T15:43:48.975Z,55.05
2022-09-18T15:46:38.390Z,55.00
2022-09-18T15:49:34.069Z,54.54
2022-09-18T15:52:43.721Z,54.70
2022-09-18T15:55:35.470Z,55.40
2022-09-18T15:58:15.350Z,54.84
2022-09-18T16:01:05.037Z,55.61
2022-09-18T16:03:53.439Z,55.17
2022-09-18T16:06:33.528Z,56.82
2022-09-18T16:09:23.037Z,54.54
2022-09-18T16:12:02.135Z,55.34
2022-09-18T16:15:03.026Z,57.56
2022-09-18T16:17:37.015Z,56.37
2022-09-18T16:20:24.278Z,56.26
2022-09-18T16:23:17.774Z,55.28
2022-09-18T16:26:04.726Z,55.87
2022-09-18T16:28:55.848Z,56.70
2022-09-18T16:31:38.987Z,56.53
2022-09-18T16:34:34.474Z,57.27
2022-09-18T16:37:20.472Z,56.17
2022-09-18T16:40:08.097Z,53.73
2022-09-18T16:43:06.203Z,53.73
2022-09-18T16:45:40.565Z,52.98
2022-09-18T16:48:24.785Z,53.15
2022-09-18T16:51:32.998Z,53.16
2022-09-18T16:54:06.698Z,52.91
2022-09-18T16:56:54.746Z,51.36
2022-09-18T16:59:39.448Z,51.03
2022-09-18T17:02:22.420Z,52.67
2022-09-18T17:05:07.803Z,50.77
2022-09-18T17:07:52.452Z,49.32
2022-09-18T17:10:49.947Z,49.32
2022-09-18T17:13:28.764Z,50.11
2022-09-18T17:16:26.208Z,49.47
2022-09-18T17:19:19.436Z,52.59
2022-09-18T17:22:22.844Z,51.66
2022-09-18T17:25:12.929Z,51.66
2022-09-18T17:27:52.473Z,50.83
2022-09-18T17:30:40.431Z,50.84
2022-09-18T17:33:41.254Z,50.87
2022-09-18T17:36:47.678Z,51.53
2022-09-18T17:39:22.059Z,51.72
2022-09-18T17:42:20.550Z,52.00
2022-09-18T17:48:06.944Z,52.05
2022-09-18T17:51:13.209Z,52.11
2022-09-18T17:53:48.794Z,52.56
2022-09-18T17:56:31.911Z,53.11
2022-09-18T17:59:12.389Z,52.92
2022-09-18T18:02:00.036Z,53.61
2022-09-18T18:04:41.410Z,53.90
2022-09-18T18:07:14.588Z,53.81
2022-09-18T18:09:55.172Z,53.92
2022-09-18T18:12:34.710Z,53.92
2022-09-18T18:15:17.517Z,55.48
2022-09-18T18:17:50.142Z,55.67
2022-09-18T18:20:27.151Z,55.87
2022-09-18T18:23:06.701Z,56.13
2022-09-18T18:25:42.745Z,56.54
2022-09-18T18:28:15.568Z,56.47
2022-09-18T18:31:05.972Z,55.48
2022-09-18T18:33:59.072Z,55.59
2022-09-18T18:36:41.146Z,55.18
2022-09-18T18:39:21.854Z,55.04
2022-09-18T18:41:59.800Z,55.85
2022-09-18T18:44:43.786Z,55.38
2022-09-18T18:47:20.125Z,55.16
2022-09-18T18:50:03.806Z,55.54
2022-09-18T18:53:08.033Z,56.84
2022-09-18T18:55:50.423Z,55.89
2022-09-18T18:58:46.297Z,56.97
2022-09-18T19:01:18.799Z,56.54
2022-09-18T19:03:59.648Z,56.65
2022-09-18T19:06:40.374Z,56.02
2022-09-18T19:09:26.763Z,56.56
2022-09-18T19:12:13.378Z,56.18
2022-09-18T19:17:40.077Z,56.28
2022-09-18T19:20:13.513Z,55.80
2022-09-18T19:22:42.165Z,56.46
2022-09-18T19:25:28.872Z,56.44
2022-09-18T19:28:01.891Z,56.85
2022-09-18T19:30:35.057Z,56.80
2022-09-18T19:33:08.038Z,56.29
2022-09-18T19:35:45.394Z,57.07
2022-09-18T19:38:27.909Z,57.13
2022-09-18T19:41:19.978Z,57.05
2022-09-18T19:43:59.772Z,56.47
2022-09-18T19:46:51.445Z,57.88
2022-09-18T19:49:47.488Z,57.83
2022-09-18T19:52:43.775Z,57.17
2022-09-18T19:55:27.446Z,57.58
2022-09-18T19:58:03.310Z,58.07
2022-09-18T20:00:38.366Z,58.20
2022-09-18T20:03:44.448Z,58.27
2022-09-18T20:06:44.149Z,58.90
2022-09-18T20:09:44.860Z,58.05
2022-09-18T20:12:44.836Z,57.57
2022-09-18T20:15:18.261Z,55.81
2022-09-18T20:18:00.780Z,55.40
2022-09-18T20:20:42.659Z,56.25
2022-09-18T20:23:41.035Z,55.58
2022-09-18T20:26:21.676Z,54.87
2022-09-18T20:29:21.584Z,54.59
2022-09-18T20:31:55.319Z,55.28
2022-09-18T20:34:55.087Z,55.13
2022-09-18T20:38:01.456Z,53.99
2022-09-18T20:40:39.780Z,53.96
2022-09-18T20:43:09.633Z,54.27
2022-09-18T20:46:02.947Z,54.03
2022-09-18T20:48:43.946Z,54.57
2022-09-18T20:51:37.112Z,55.09
2022-09-18T20:54:18.223Z,55.09
2022-09-18T20:56:51.674Z,55.51
2022-09-18T20:59:33.113Z,56.09
2022-09-18T21:02:09.094Z,56.49
2022-09-18T21:05:03.494Z,56.61
2022-09-18T21:07:42.756Z,57.22
2022-09-18T21:10:27.973Z,57.01
2022-09-18T21:13:14.747Z,58.31
2022-09-18T21:15:55.230Z,58.30
2022-09-18T21:18:41.984Z,59.26
2022-09-18T21:21:15.554Z,57.95
2022-09-18T21:24:07.124Z,58.89
2022-09-18T21:26:46.025Z,57.83
2022-09-18T21:29:28.772Z,58.05
2022-09-18T21:32:11.963Z,58.42
2022-09-18T21:35:04.243Z,58.96
2022-09-18T21:37:37.527Z,58.95
2022-09-18T21:40:18.004Z,58.22
2022-09-18T21:43:06.675Z,58.27
2022-09-18T21:45:48.975Z,58.11
2022-09-18T21:48:31.245Z,58.05
2022-09-18T21:54:06.702Z,59.31
2022-09-18T21:56:41.307Z,59.36
2022-09-18T21:59:34.415Z,58.53
2022-09-18T22:02:09.461Z,59.21
2022-09-18T22:04:52.293Z,59.12
2022-09-18T22:07:26.020Z,59.39
2022-09-18T22:10:08.689Z,59.11
2022-09-18T22:12:42.442Z,58.99
2022-09-18T22:15:15.180Z,58.72
2022-09-18T22:17:47.920Z,58.46
2022-09-18T22:20:22.582Z,58.58
2022-09-18T22:22:58.006Z,58.71
2022-09-18T22:25:31.580Z,58.54
2022-09-18T22:28:19.545Z,58.53
2022-09-18T22:30:58.515Z,59.01
2022-09-18T22:33:38.966Z,58.66
2022-09-18T22:36:12.219Z,58.67
2022-09-18T22:38:52.597Z,59.16
2022-09-18T22:41:36.352Z,58.98
2022-09-18T22:44:24.374Z,58.90
2022-09-18T22:47:04.503Z,58.76
2022-09-18T22:49:49.162Z,58.96
2022-09-18T22:52:31.434Z,59.13
2022-09-18T22:55:18.910Z,59.79
2022-09-18T22:58:22.459Z,59.60
2022-09-18T23:00:59.040Z,59.43
2022-09-18T23:03:52.482Z,59.33
2022-09-18T23:06:25.460Z,59.17
2022-09-18T23:09:04.732Z,59.41
2022-09-18T23:11:56.446Z,59.57
2022-09-18T23:14:38.655Z,59.63
2022-09-18T23:17:27.781Z,60.15
2022-09-18T23:20:10.763Z,60.30
2022-09-18T23:22:52.277Z,59.75
2022-09-18T23:25:35.961Z,59.61
2022-09-18T23:28:08.581Z,60.58
2022-09-18T23:30:42.176Z,59.75
2022-09-18T23:33:17.638Z,59.39
2022-09-18T23:36:11.599Z,60.90
2022-09-18T23:39:04.793Z,60.15
2022-09-18T23:41:39.411Z,60.23
2022-09-18T23:44:13.134Z,59.95
2022-09-18T23:46:44.111Z,59.62
2022-09-18T23:49:24.043Z,60.34
2022-09-18T23:52:13.899Z,59.92
2022-09-18T23:54:47.834Z,60.52
2022-09-18T23:57:20.591Z,60.50
